Time;durP1;ratioP1;P1;durP2;ratioP2;P2;SDS_P1;SDS_P2;PMS_P1;PMS_P2;Temp;Humidity;BMP_temperature;BMP_pressure;BME280_temperature;BME280_humidity;BME280_pressure;Samples;Min_cycle;Max_cycle;Signal;HPM_P1;HPM_P2
2022/03/02 00:01:50;;;;;;;45.90;26.05;;;6.20;99.90;;;;;;5050165;28;20506;-62
2022/03/02 00:04:16;;;;;;;45.72;25.95;;;6.20;99.90;;;;;;5050164;28;20048;-62
2022/03/02 00:06:41;;;;;;;46.33;25.83;;;6.20;99.90;;;;;;5046958;28;20037;-61
2022/03/02 00:09:07;;;;;;;49.50;27.08;;;6.10;99.90;;;;;;5042541;28;20533;-61
2022/03/02 00:11:32;;;;;;;45.45;26.25;;;6.20;99.90;;;;;;5050278;28;20132;-61
2022/03/02 00:14:00;;;;;;;43.38;25.00;;;6.10;99.90;;;;;;5050294;28;20045;-61
2022/03/02 00:16:26;;;;;;;44.90;26.20;;;6.10;99.90;;;;;;5036529;28;20587;-61
2022/03/02 00:18:51;;;;;;;48.92;26.15;;;6.10;99.90;;;;;;5042352;28;20495;-61
2022/03/02 00:21:18;;;;;;;45.13;26.13;;;6.10;99.90;;;;;;5049845;28;20087;-61
2022/03/02 00:23:44;;;;;;;43.83;25.90;;;6.10;99.90;;;;;;5043483;28;20600;-61
2022/03/02 00:26:09;;;;;;;48.15;27.75;;;6.10;99.90;;;;;;5049959;28;20714;-61
2022/03/02 00:28:35;;;;;;;49.53;26.63;;;6.10;99.90;;;;;;5050247;28;20044;-61
2022/03/02 00:31:01;;;;;;;47.72;26.70;;;6.10;99.90;;;;;;5050538;28;20527;-60
2022/03/02 00:33:26;;;;;;;49.00;26.05;;;6.10;99.90;;;;;;5046609;28;20064;-61
2022/03/02 00:35:52;;;;;;;43.33;25.65;;;6.10;99.90;;;;;;5049549;28;20495;-61
2022/03/02 00:38:17;;;;;;;46.05;25.73;;;6.10;99.90;;;;;;5050023;28;20099;-61
2022/03/02 00:40:43;;;;;;;48.28;25.75;;;6.10;99.90;;;;;;5040111;28;20391;-61
2022/03/02 00:43:10;;;;;;;51.47;28.63;;;6.10;99.90;;;;;;5035515;28;20487;-61
2022/03/02 00:45:36;;;;;;;49.75;26.98;;;6.00;99.90;;;;;;5049809;28;20029;-61
2022/03/02 00:48:04;;;;;;;44.20;25.65;;;6.10;99.90;;;;;;5048097;28;20041;-61
2022/03/02 00:50:30;;;;;;;48.58;27.42;;;6.10;99.90;;;;;;5035936;28;20065;-61
2022/03/02 00:52:56;;;;;;;45.33;26.23;;;6.00;99.90;;;;;;5048907;28;20049;-61
2022/03/02 00:55:22;;;;;;;45.22;26.48;;;6.00;99.90;;;;;;5050055;28;20044;-61
2022/03/02 00:57:48;;;;;;;45.17;25.85;;;6.00;99.90;;;;;;5037751;28;20041;-61
2022/03/02 01:00:14;;;;;;;47.78;26.17;;;6.10;99.90;;;;;;5048031;28;20037;-61
2022/03/02 01:02:40;;;;;;;50.90;28.20;;;6.00;99.90;;;;;;5049171;28;20037;-61
2022/03/02 01:05:07;;;;;;;48.95;26.00;;;6.10;99.90;;;;;;5033683;28;20036;-61
2022/03/02 01:07:34;;;;;;;49.33;27.98;;;6.10;99.90;;;;;;5045749;28;20029;-61
2022/03/02 01:10:00;;;;;;;50.75;27.50;;;6.10;99.90;;;;;;5049697;28;20033;-61
2022/03/02 01:12:26;;;;;;;48.40;27.08;;;6.00;99.90;;;;;;5047589;28;20194;-61
2022/03/02 01:14:52;;;;;;;51.97;27.75;;;6.00;99.90;;;;;;5033556;28;20034;-61
2022/03/02 01:17:19;;;;;;;48.25;26.98;;;6.00;99.90;;;;;;5044868;28;20037;-61
2022/03/02 01:19:44;;;;;;;54.35;27.40;;;6.00;99.90;;;;;;5048427;28;20152;-61
2022/03/02 01:22:10;;;;;;;44.60;26.17;;;5.90;99.90;;;;;;5044413;28;20116;-61
2022/03/02 01:24:35;;;;;;;48.95;26.65;;;5.90;99.90;;;;;;5030538;28;20124;-61
2022/03/02 01:27:02;;;;;;;53.53;28.05;;;5.80;99.90;;;;;;5048865;28;20036;-61
2022/03/02 01:29:30;;;;;;;50.35;26.60;;;5.80;99.90;;;;;;5049064;28;20056;-61
2022/03/02 01:31:56;;;;;;;49.45;27.35;;;5.70;99.90;;;;;;5034165;28;20051;-61
2022/03/02 01:34:21;;;;;;;47.80;26.73;;;5.60;99.90;;;;;;5047991;28;20798;-61
2022/03/02 01:36:47;;;;;;;50.67;27.17;;;5.50;99.90;;;;;;5048869;28;20047;-61
2022/03/02 01:39:13;;;;;;;51.10;26.88;;;5.40;99.90;;;;;;5043203;28;20048;-61
2022/03/02 01:41:38;;;;;;;46.08;26.88;;;5.30;99.90;;;;;;5044456;28;20039;-61
2022/03/02 01:44:04;;;;;;;51.47;28.35;;;5.30;99.90;;;;;;5048357;28;20483;-61
2022/03/02 01:46:30;;;;;;;54.25;28.70;;;5.20;99.90;;;;;;5046137;28;20399;-61
2022/03/02 01:48:56;;;;;;;47.45;26.70;;;5.20;99.90;;;;;;5039745;28;20507;-61
2022/03/02 01:51:22;;;;;;;49.35;28.55;;;5.10;99.90;;;;;;5048248;28;20047;-61
2022/03/02 01:53:48;;;;;;;48.63;26.90;;;5.10;99.90;;;;;;5048401;28;20466;-61
2022/03/02 01:56:14;;;;;;;49.85;26.95;;;5.10;99.90;;;;;;5040287;28;20204;-61
2022/03/02 01:58:40;;;;;;;51.45;28.13;;;5.10;99.90;;;;;;5042615;28;20040;-61
2022/03/02 02:01:06;;;;;;;50.10;27.40;;;5.00;99.90;;;;;;5048412;28;20470;-61
2022/03/02 02:03:33;;;;;;;52.40;28.23;;;5.00;99.90;;;;;;5041914;28;20292;-61
2022/03/02 02:06:00;;;;;;;49.28;28.10;;;5.00;99.90;;;;;;5039330;28;20025;-61
2022/03/02 02:08:27;;;;;;;48.80;27.27;;;4.90;99.90;;;;;;5047926;28;20427;-61
2022/03/02 02:10:55;;;;;;;52.80;28.60;;;5.00;99.90;;;;;;5048186;28;20041;-61
2022/03/02 02:13:22;;;;;;;53.65;28.33;;;4.90;99.90;;;;;;5040052;28;20048;-61
2022/03/02 02:15:47;;;;;;;52.85;29.10;;;5.00;99.90;;;;;;5042187;28;20045;-61
2022/03/02 02:18:13;;;;;;;48.83;27.15;;;5.00;99.90;;;;;;5047773;28;20051;-61
2022/03/02 02:20:40;;;;;;;51.88;28.30;;;5.00;99.90;;;;;;5039355;28;20523;-61
2022/03/02 02:23:06;;;;;;;52.65;28.38;;;5.00;99.90;;;;;;5033585;28;20573;-61
2022/03/02 02:25:32;;;;;;;53.75;28.38;;;5.10;99.90;;;;;;5047842;28;20064;-60
2022/03/02 02:27:59;;;;;;;54.40;28.33;;;5.10;99.90;;;;;;5047797;28;20043;-61
2022/03/02 02:30:26;;;;;;;51.17;27.70;;;5.10;99.90;;;;;;5038387;28;20080;-61
2022/03/02 02:32:51;;;;;;;55.90;28.95;;;5.10;99.90;;;;;;5041823;28;20044;-61
2022/03/02 02:35:17;;;;;;;56.22;28.63;;;5.30;99.90;;;;;;5047942;28;20056;-61
2022/03/02 02:37:43;;;;;;;50.38;27.80;;;5.20;99.90;;;;;;5037862;28;20546;-61
2022/03/02 02:40:15;;;;;;;53.03;29.48;;;5.30;99.90;;;;;;5046161;28;20123;-61
2022/03/02 02:42:44;;;;;;;52.45;29.23;;;5.30;99.90;;;;;;5047440;28;20123;-61
2022/03/02 02:45:14;;;;;;;49.13;27.45;;;5.30;99.90;;;;;;5036528;28;20064;-61
2022/03/02 02:47:40;;;;;;;47.70;27.70;;;5.40;99.90;;;;;;5044058;28;20518;-62
2022/03/02 02:50:18;;;;;;;53.22;28.38;;;5.40;99.90;;;;;;5047931;28;20090;-61
2022/03/02 02:52:44;;;;;;;53.55;28.08;;;5.40;99.90;;;;;;5047466;28;20037;-61
2022/03/02 02:55:11;;;;;;;51.40;28.25;;;5.40;99.90;;;;;;5041306;28;20098;-61
2022/03/02 02:57:37;;;;;;;53.08;28.17;;;5.40;99.90;;;;;;5046950;28;20041;-61
2022/03/02 03:00:07;;;;;;;54.75;28.48;;;5.30;99.90;;;;;;5047786;28;20094;-60
2022/03/02 03:02:33;;;;;;;51.25;28.60;;;5.30;99.90;;;;;;5040063;28;20518;-61
2022/03/02 03:04:58;;;;;;;55.63;29.33;;;5.30;99.90;;;;;;5042707;28;20029;-61
2022/03/02 03:07:24;;;;;;;52.65;29.20;;;5.30;99.90;;;;;;5047367;28;20041;-61
2022/03/02 03:09:49;;;;;;;53.15;29.13;;;5.30;99.90;;;;;;5042530;28;20129;-61
2022/03/02 03:12:15;;;;;;;55.58;30.00;;;5.30;99.90;;;;;;5029503;28;20138;-61
2022/03/02 03:14:40;;;;;;;56.50;29.67;;;5.30;99.90;;;;;;5044372;28;20032;-61
2022/03/02 03:17:06;;;;;;;54.55;29.08;;;5.30;99.90;;;;;;5047591;28;20044;-61
2022/03/02 03:19:32;;;;;;;52.17;27.90;;;5.30;99.90;;;;;;5033502;28;20118;-61
2022/03/02 03:22:07;;;;;;;51.92;28.55;;;5.30;99.90;;;;;;5046815;28;20037;-61
2022/03/02 03:24:34;;;;;;;54.03;29.60;;;5.30;99.90;;;;;;5047283;28;20044;-62
2022/03/02 03:27:00;;;;;;;50.53;28.10;;;5.20;99.90;;;;;;5043860;28;20654;-61
2022/03/02 03:29:25;;;;;;;56.22;29.35;;;5.30;99.90;;;;;;5041367;28;20084;-61
2022/03/02 03:31:51;;;;;;;57.28;27.95;;;5.30;99.90;;;;;;5047425;28;20407;-61
2022/03/02 03:34:17;;;;;;;51.72;28.40;;;5.30;99.90;;;;;;5044808;28;20068;-61
2022/03/02 03:36:42;;;;;;;51.97;28.83;;;5.30;99.90;;;;;;5041007;28;20608;-61
2022/03/02 03:39:08;;;;;;;52.40;28.75;;;5.30;99.90;;;;;;5046960;28;20041;-61
2022/03/02 03:41:34;;;;;;;52.03;28.55;;;5.30;99.90;;;;;;5049391;28;20037;-61
2022/03/02 03:44:00;;;;;;;51.88;28.52;;;5.30;99.90;;;;;;5037412;28;20039;-61
2022/03/02 03:46:26;;;;;;;53.03;29.60;;;5.20;99.90;;;;;;5042411;28;20120;-61
2022/03/02 03:48:51;;;;;;;51.60;27.33;;;5.20;99.90;;;;;;5050913;28;20033;-61
2022/03/02 03:51:17;;;;;;;53.85;28.67;;;5.10;99.90;;;;;;5050836;28;20068;-61
2022/03/02 03:53:43;;;;;;;53.63;28.95;;;5.10;99.90;;;;;;5040427;28;20033;-60
2022/03/02 03:56:08;;;;;;;53.38;28.27;;;5.10;99.90;;;;;;5050085;28;20029;-61
2022/03/02 03:58:34;;;;;;;55.35;29.27;;;5.10;99.90;;;;;;5050575;28;20551;-61
2022/03/02 04:01:00;;;;;;;54.85;28.60;;;5.10;99.90;;;;;;5040143;28;20103;-60
2022/03/02 04:03:25;;;;;;;53.65;28.98;;;5.10;99.90;;;;;;5050154;28;20107;-61
2022/03/02 04:05:51;;;;;;;55.25;29.05;;;5.20;99.90;;;;;;5050401;28;20037;-61
2022/03/02 04:08:17;;;;;;;50.72;27.92;;;5.20;99.90;;;;;;5050442;28;20044;-61
2022/03/02 04:10:45;;;;;;;55.20;28.98;;;5.20;99.90;;;;;;5045784;28;20040;-61
2022/03/02 04:13:13;;;;;;;52.67;29.02;;;5.10;99.90;;;;;;5050076;28;20033;-60
2022/03/02 04:15:39;;;;;;;55.72;28.98;;;5.10;99.90;;;;;;5050443;28;20041;-61
2022/03/02 04:18:06;;;;;;;52.55;29.42;;;5.10;99.90;;;;;;5048508;28;20053;-61
2022/03/02 04:20:32;;;;;;;56.28;29.15;;;5.10;99.90;;;;;;5049927;28;20037;-61
2022/03/02 04:22:58;;;;;;;54.95;29.67;;;5.10;99.90;;;;;;5049981;28;20047;-61
2022/03/02 04:25:24;;;;;;;53.85;29.02;;;5.00;99.90;;;;;;5046955;28;20029;-61
2022/03/02 04:27:49;;;;;;;55.38;29.45;;;5.00;99.90;;;;;;5049675;28;20676;-61
2022/03/02 04:30:15;;;;;;;55.10;28.63;;;5.00;99.90;;;;;;5050107;28;20682;-61
2022/03/02 04:32:41;;;;;;;54.28;29.58;;;5.00;99.90;;;;;;5050294;28;20037;-61
2022/03/02 04:35:09;;;;;;;58.05;30.55;;;5.00;99.90;;;;;;5039794;28;20056;-61
2022/03/02 04:37:35;;;;;;;53.35;28.30;;;5.00;99.90;;;;;;5046000;28;20068;-61
2022/03/02 04:40:01;;;;;;;56.20;29.92;;;5.00;99.90;;;;;;5046750;28;20067;-60
2022/03/02 04:42:26;;;;;;;54.28;29.08;;;4.90;99.90;;;;;;5039912;28;20068;-61
2022/03/02 04:44:52;;;;;;;59.03;30.27;;;5.00;99.90;;;;;;5043932;28;20041;-61
2022/03/02 04:47:17;;;;;;;55.75;30.08;;;5.00;99.90;;;;;;5044151;28;20037;-61
2022/03/02 04:49:43;;;;;;;54.33;29.00;;;5.00;99.90;;;;;;5046164;28;20047;-61
2022/03/02 04:52:08;;;;;;;54.50;28.88;;;5.00;99.90;;;;;;5031081;28;20116;-61
2022/03/02 04:57:18;;;;;;;54.53;28.33;;;5.00;99.90;;;;;;5043977;28;20053;-61
2022/03/02 04:59:44;;;;;;;53.92;28.73;;;5.00;99.90;;;;;;5043457;28;20132;-61
2022/03/02 05:02:09;;;;;;;51.45;27.63;;;5.00;99.90;;;;;;5042405;28;20040;-61
2022/03/02 05:04:35;;;;;;;60.45;28.55;;;4.90;99.90;;;;;;5048257;28;20036;-61
2022/03/02 05:07:00;;;;;;;52.35;28.38;;;4.90;99.90;;;;;;5045648;28;20048;-61
2022/03/02 05:09:26;;;;;;;55.90;29.67;;;4.90;99.90;;;;;;5049232;28;20089;-61
2022/03/02 05:11:52;;;;;;;54.97;28.95;;;4.90;99.90;;;;;;5049376;28;20469;-61
2022/03/02 05:14:17;;;;;;;54.97;29.75;;;4.90;99.90;;;;;;5048729;28;20408;-61
2022/03/02 05:16:43;;;;;;;53.42;28.85;;;4.90;99.90;;;;;;5045400;28;20045;-61
2022/03/02 05:19:08;;;;;;;56.47;29.35;;;4.90;99.90;;;;;;5038816;28;20041;-61
2022/03/02 05:21:34;;;;;;;53.80;29.10;;;4.90;99.90;;;;;;5048779;28;20036;-61
2022/03/02 05:24:00;;;;;;;54.08;29.65;;;4.90;99.90;;;;;;5043127;28;20091;-61
2022/03/02 05:26:25;;;;;;;53.75;27.63;;;4.90;99.90;;;;;;5044472;28;20063;-61
2022/03/02 05:28:51;;;;;;;51.47;29.52;;;4.90;99.90;;;;;;5048133;28;20037;-61
2022/03/02 05:31:17;;;;;;;53.22;29.10;;;4.90;99.90;;;;;;5048867;28;20384;-61
2022/03/02 05:33:43;;;;;;;56.42;29.75;;;4.90;99.90;;;;;;5038846;28;20407;-61
2022/03/02 05:36:09;;;;;;;53.38;28.52;;;4.80;99.90;;;;;;5048290;28;20045;-61
2022/03/02 05:38:34;;;;;;;58.17;29.92;;;4.80;99.90;;;;;;5047920;28;20036;-61
2022/03/02 05:41:00;;;;;;;51.58;27.45;;;4.80;99.90;;;;;;5041315;28;20041;-60
2022/03/02 05:43:25;;;;;;;57.42;29.27;;;4.80;99.90;;;;;;5043563;28;20052;-61
2022/03/02 05:45:51;;;;;;;55.17;30.20;;;4.80;99.90;;;;;;5048434;28;20403;-61
2022/03/02 05:48:17;;;;;;;57.13;28.80;;;4.80;99.90;;;;;;5045422;28;20052;-61
2022/03/02 05:50:42;;;;;;;55.55;29.00;;;4.80;99.90;;;;;;5044885;28;20041;-61
2022/03/02 05:53:08;;;;;;;57.25;30.10;;;4.70;99.90;;;;;;5039617;28;20083;-61
2022/03/02 05:55:33;;;;;;;53.30;27.92;;;4.80;99.90;;;;;;5048253;28;20037;-61
2022/03/02 05:57:59;;;;;;;56.58;29.80;;;4.80;99.90;;;;;;5078005;22;20091;-62
2022/03/02 06:00:25;;;;;;;56.53;29.38;;;4.80;99.90;;;;;;5003978;28;20036;-62
2022/03/02 06:02:50;;;;;;;54.50;29.55;;;4.80;99.90;;;;;;4982353;28;20049;-63
2022/03/02 06:05:16;;;;;;;53.92;28.98;;;4.70;99.90;;;;;;5007570;28;20046;-63
2022/03/02 06:10:18;;;;;;;51.00;28.25;;;4.70;99.90;;;;;;5230466;22;20156;-63
2022/03/02 06:12:44;;;;;;;56.05;29.13;;;4.70;99.90;;;;;;4998753;28;20284;-62
2022/03/02 06:15:11;;;;;;;58.17;29.63;;;4.60;99.90;;;;;;5025126;28;20510;-63
2022/03/02 06:17:38;;;;;;;55.45;29.02;;;4.60;99.90;;;;;;4999104;28;20048;-63
2022/03/02 06:20:05;;;;;;;54.65;28.60;;;4.60;99.90;;;;;;5138085;22;20045;-62
2022/03/02 06:22:31;;;;;;;54.00;29.73;;;4.50;99.90;;;;;;5039280;28;20044;-63
2022/03/02 06:24:57;;;;;;;55.85;29.88;;;4.50;99.90;;;;;;5063943;28;20049;-63
2022/03/02 06:27:23;;;;;;;57.63;30.73;;;4.40;99.90;;;;;;5066070;28;20048;-63
2022/03/02 06:29:48;;;;;;;58.35;30.00;;;4.40;99.90;;;;;;5040871;28;20406;-63
2022/03/02 06:32:15;;;;;;;58.95;29.45;;;4.30;99.90;;;;;;5011413;28;20053;-63
2022/03/02 06:34:41;;;;;;;58.40;29.92;;;4.30;99.90;;;;;;5026724;28;20041;-62
2022/03/02 06:37:07;;;;;;;55.75;29.20;;;4.30;99.90;;;;;;5044687;28;20051;-63
2022/03/02 06:39:33;;;;;;;56.88;30.75;;;4.30;99.90;;;;;;5014064;22;20046;-61
2022/03/02 06:42:22;;;;;;;56.05;31.33;;;4.30;99.90;;;;;;4988671;28;20069;-61
2022/03/02 06:44:55;;;;;;;61.42;30.40;;;4.40;99.90;;;;;;4987366;28;20048;-61
2022/03/02 06:47:27;;;;;;;60.80;30.42;;;4.40;99.90;;;;;;4982133;28;20038;-61
2022/03/02 06:50:09;;;;;;;60.22;32.08;;;4.50;99.90;;;;;;4981530;28;20073;-61
2022/03/02 06:52:37;;;;;;;57.33;30.35;;;4.60;99.90;;;;;;4981272;28;20107;-61
2022/03/02 06:55:08;;;;;;;55.72;29.00;;;4.60;99.90;;;;;;4981099;28;20039;-61
2022/03/02 06:57:35;;;;;;;57.35;30.38;;;4.70;99.90;;;;;;4964849;28;20034;-61
2022/03/02 07:00:16;;;;;;;55.50;29.70;;;4.70;99.90;;;;;;4966423;28;20023;-62
2022/03/02 07:02:49;;;;;;;58.53;30.08;;;4.80;99.90;;;;;;4966492;28;20041;-61
2022/03/02 07:05:15;;;;;;;57.33;29.75;;;4.80;99.90;;;;;;4968889;28;20110;-61
2022/03/02 07:07:41;;;;;;;57.38;29.33;;;4.90;99.90;;;;;;4974733;28;20049;-61
2022/03/02 07:10:08;;;;;;;60.20;31.05;;;4.90;99.90;;;;;;4985664;28;20133;-61
2022/03/02 07:12:36;;;;;;;58.63;29.00;;;5.00;99.90;;;;;;4985671;28;20133;-61
2022/03/02 07:15:03;;;;;;;59.08;30.52;;;5.00;99.90;;;;;;4975483;28;20501;-61
2022/03/02 07:17:32;;;;;;;62.00;29.33;;;5.10;99.90;;;;;;4979217;28;20050;-61
2022/03/02 07:20:02;;;;;;;54.67;29.08;;;5.10;99.90;;;;;;4987581;28;20060;-61
2022/03/02 07:22:32;;;;;;;50.88;28.67;;;5.20;99.90;;;;;;4973507;28;20043;-61
2022/03/02 07:25:20;;;;;;;54.35;29.95;;;5.20;99.90;;;;;;4979485;28;20031;-61
2022/03/02 07:27:46;;;;;;;59.80;29.40;;;5.30;99.90;;;;;;4981869;28;20050;-61
2022/03/02 07:30:12;;;;;;;52.88;29.33;;;5.30;99.90;;;;;;4984090;28;20039;-61
2022/03/02 07:32:41;;;;;;;52.03;28.90;;;5.40;99.90;;;;;;4991383;28;20058;-61
2022/03/02 07:35:07;;;;;;;50.75;28.90;;;5.40;99.90;;;;;;4976269;28;20436;-61
2022/03/02 07:37:33;;;;;;;51.78;28.45;;;5.40;99.90;;;;;;4977908;28;20070;-61
2022/03/02 07:40:00;;;;;;;52.13;28.02;;;5.50;99.90;;;;;;4981824;28;20034;-61
2022/03/02 07:42:25;;;;;;;51.28;28.40;;;5.50;99.90;;;;;;4982668;28;20100;-61
2022/03/02 07:44:53;;;;;;;53.85;28.83;;;5.50;99.90;;;;;;4991669;28;20038;-61
2022/03/02 07:47:19;;;;;;;54.47;28.10;;;5.60;99.90;;;;;;4982032;28;20043;-61
2022/03/02 07:49:46;;;;;;;53.28;28.17;;;5.60;99.90;;;;;;4983809;28;20034;-61
2022/03/02 07:52:14;;;;;;;51.65;26.58;;;5.60;99.90;;;;;;4985224;28;20197;-61
2022/03/02 07:54:41;;;;;;;48.85;26.67;;;5.70;99.90;;;;;;4981093;28;20077;-61
2022/03/02 07:57:09;;;;;;;49.35;27.27;;;5.70;99.90;;;;;;4979599;28;20031;-61
2022/03/02 07:59:38;;;;;;;51.63;27.38;;;5.70;99.90;;;;;;4975199;28;20088;-61
2022/03/02 08:02:05;;;;;;;51.20;28.05;;;5.80;99.90;;;;;;4971018;28;20153;-61
2022/03/02 08:04:32;;;;;;;47.78;27.38;;;5.80;99.90;;;;;;4977762;28;20031;-61
2022/03/02 08:06:57;;;;;;;50.03;27.33;;;5.90;99.90;;;;;;4982780;28;20031;-61
2022/03/02 08:09:23;;;;;;;50.45;26.98;;;5.90;99.90;;;;;;4991897;28;20034;-61
2022/03/02 08:11:49;;;;;;;47.50;25.67;;;6.00;99.90;;;;;;4972938;28;20042;-61
2022/03/02 08:14:18;;;;;;;46.33;27.15;;;6.00;99.90;;;;;;4974517;28;20053;-61
2022/03/02 08:16:45;;;;;;;50.65;25.98;;;6.00;99.90;;;;;;4980196;28;20147;-61
2022/03/02 08:19:11;;;;;;;47.00;26.17;;;6.00;99.90;;;;;;4978225;28;20030;-61
2022/03/02 08:21:41;;;;;;;49.35;26.45;;;6.10;99.90;;;;;;4981703;28;20065;-61
2022/03/02 08:24:12;;;;;;;49.38;26.30;;;6.10;99.90;;;;;;4989762;28;20057;-61
2022/03/02 08:26:39;;;;;;;46.03;25.73;;;6.10;99.90;;;;;;4979437;28;20039;-61
2022/03/02 08:29:07;;;;;;;44.65;25.00;;;6.10;99.90;;;;;;4981139;28;20046;-62
2022/03/02 08:31:35;;;;;;;49.40;25.98;;;6.20;99.90;;;;;;4982753;28;20037;-63
2022/03/02 08:34:03;;;;;;;46.78;24.27;;;6.20;99.90;;;;;;4980128;28;20034;-61
2022/03/02 08:36:33;;;;;;;45.10;25.55;;;6.10;99.90;;;;;;4965181;28;20039;-61
2022/03/02 08:39:01;;;;;;;47.40;24.98;;;6.10;99.90;;;;;;4977451;28;20026;-61
2022/03/02 08:41:26;;;;;;;46.78;24.80;;;6.10;99.90;;;;;;4971266;28;20050;-61
2022/03/02 08:43:52;;;;;;;44.58;24.65;;;6.00;99.90;;;;;;4972112;28;20047;-61
2022/03/02 08:46:17;;;;;;;47.03;25.65;;;6.10;99.90;;;;;;4971905;28;20042;-61
2022/03/02 08:48:43;;;;;;;43.38;24.30;;;6.00;99.90;;;;;;4981587;28;20521;-61
2022/03/02 08:51:09;;;;;;;45.63;24.15;;;6.10;99.90;;;;;;4963578;28;20035;-61
2022/03/02 08:53:36;;;;;;;46.13;25.77;;;6.10;99.90;;;;;;4957651;28;20074;-61
2022/03/02 08:56:06;;;;;;;48.55;25.33;;;6.10;99.90;;;;;;4974223;28;20062;-61
2022/03/02 08:58:32;;;;;;;44.45;24.80;;;6.20;99.90;;;;;;4968888;28;20496;-61
2022/03/02 09:01:00;;;;;;;46.13;24.92;;;6.20;99.90;;;;;;4965736;28;20049;-61
2022/03/02 09:03:26;;;;;;;44.10;24.02;;;6.30;99.90;;;;;;4969933;28;20069;-61
2022/03/02 09:05:53;;;;;;;40.45;22.92;;;6.40;99.90;;;;;;4963319;28;20049;-61
2022/03/02 09:08:19;;;;;;;45.45;23.67;;;6.50;99.90;;;;;;4956205;28;20118;-61
2022/03/02 09:10:46;;;;;;;42.50;23.75;;;6.60;99.90;;;;;;4967050;28;20034;-61
2022/03/02 09:13:12;;;;;;;39.17;21.33;;;6.70;99.90;;;;;;4977292;28;20043;-61
2022/03/02 09:15:39;;;;;;;44.03;22.58;;;6.80;99.90;;;;;;4986887;28;20113;-66
2022/03/02 09:18:06;;;;;;;38.88;21.90;;;6.80;99.90;;;;;;4972775;28;20428;-61
2022/03/02 09:20:33;;;;;;;39.58;21.05;;;6.80;99.90;;;;;;4972763;28;20675;-61
2022/03/02 09:23:01;;;;;;;37.65;21.20;;;6.80;99.90;;;;;;4974056;28;20747;-61
2022/03/02 09:25:30;;;;;;;38.78;20.52;;;6.90;99.90;;;;;;4961524;28;20063;-61
2022/03/02 09:27:56;;;;;;;42.22;21.70;;;6.90;99.90;;;;;;4963441;28;20038;-61
2022/03/02 09:30:22;;;;;;;40.97;21.08;;;7.00;99.90;;;;;;4956252;28;20105;-61
2022/03/02 09:32:53;;;;;;;41.25;19.98;;;7.00;99.90;;;;;;4970702;28;20053;-61
2022/03/02 09:35:20;;;;;;;38.03;19.92;;;7.00;99.90;;;;;;4971608;28;20056;-61
2022/03/02 09:37:49;;;;;;;35.90;19.27;;;7.00;99.90;;;;;;4976296;28;20043;-61
2022/03/02 09:40:23;;;;;;;38.05;20.70;;;7.00;99.90;;;;;;4960639;28;20038;-61
2022/03/02 09:43:00;;;;;;;35.00;19.92;;;7.10;99.90;;;;;;4964254;28;20437;-61
2022/03/02 09:45:29;;;;;;;38.83;20.33;;;7.10;99.90;;;;;;4971675;28;20497;-61
2022/03/02 09:47:58;;;;;;;36.03;18.55;;;7.10;99.90;;;;;;4967842;28;20544;-61
2022/03/02 09:50:27;;;;;;;35.15;19.88;;;7.20;99.90;;;;;;4965342;28;20042;-61
2022/03/02 09:52:55;;;;;;;36.45;19.40;;;7.20;99.90;;;;;;4970220;28;20043;-61
2022/03/02 09:55:22;;;;;;;34.95;18.85;;;7.30;99.90;;;;;;4964722;28;20039;-61
2022/03/02 09:57:50;;;;;;;31.83;18.05;;;7.50;99.90;;;;;;4961172;28;20038;-61
2022/03/02 10:00:18;;;;;;;31.45;17.92;;;7.50;99.90;;;;;;4972848;28;20065;-61
2022/03/02 10:02:47;;;;;;;30.80;17.23;;;7.50;99.90;;;;;;4979106;28;20056;-61
2022/03/02 10:05:16;;;;;;;32.38;17.48;;;7.50;99.90;;;;;;4982610;28;20684;-61
2022/03/02 10:07:52;;;;;;;35.35;19.10;;;7.60;99.90;;;;;;4978136;28;20038;-61
2022/03/02 10:10:22;;;;;;;32.60;18.27;;;7.60;99.90;;;;;;4973488;28;20042;-61
2022/03/02 10:12:49;;;;;;;31.50;18.23;;;7.60;99.90;;;;;;4974151;28;20078;-61
2022/03/02 10:15:15;;;;;;;35.10;17.95;;;7.60;99.90;;;;;;4975715;28;20475;-61
2022/03/02 10:17:43;;;;;;;31.90;17.38;;;7.70;99.90;;;;;;4983740;28;20129;-61
2022/03/02 10:20:17;;;;;;;32.30;18.52;;;7.70;99.90;;;;;;4967191;28;20039;-61
2022/03/02 10:22:46;;;;;;;36.30;19.50;;;7.80;99.90;;;;;;4978067;28;20039;-61
2022/03/02 10:25:14;;;;;;;32.78;17.50;;;7.80;99.90;;;;;;4978673;28;20038;-61
2022/03/02 10:28:05;;;;;;;37.60;20.30;;;7.80;99.90;;;;;;4977538;28;20761;-61
2022/03/02 10:30:35;;;;;;;46.28;21.08;;;7.80;99.90;;;;;;4989016;28;20046;-61
2022/03/02 10:33:16;;;;;;;36.85;19.67;;;8.00;99.90;;;;;;4976050;28;20039;-61
2022/03/02 10:36:03;;;;;;;36.70;19.45;;;8.10;99.90;;;;;;4978079;28;20034;-61
2022/03/02 10:38:59;;;;;;;35.60;19.15;;;8.10;99.90;;;;;;4984225;28;20038;-61
2022/03/02 10:41:28;;;;;;;37.38;19.40;;;8.20;99.90;;;;;;4975055;28;20422;-61
2022/03/02 10:44:14;;;;;;;37.28;19.05;;;8.30;99.90;;;;;;4978568;28;20039;-61
2022/03/02 10:46:45;;;;;;;35.22;19.90;;;8.30;99.90;;;;;;4985942;28;20096;-61
2022/03/02 10:49:19;;;;;;;33.33;19.52;;;8.40;99.90;;;;;;4977869;28;20045;-61
2022/03/02 10:51:46;;;;;;;32.15;18.33;;;8.50;99.90;;;;;;4977003;28;20114;-61
2022/03/02 10:54:17;;;;;;;33.38;18.05;;;8.50;99.90;;;;;;4979689;28;20038;-62
2022/03/02 10:56:44;;;;;;;33.20;18.65;;;8.50;99.90;;;;;;4965729;28;20039;-61
2022/03/02 10:59:16;;;;;;;33.15;18.65;;;8.50;99.90;;;;;;4972633;28;20171;-61
2022/03/02 11:01:44;;;;;;;35.25;20.20;;;8.50;99.90;;;;;;4974555;28;20114;-61
2022/03/02 11:04:10;;;;;;;32.88;19.60;;;8.50;99.90;;;;;;4969097;28;20724;-61
2022/03/02 11:06:37;;;;;;;33.85;19.58;;;8.70;99.90;;;;;;4967486;28;20038;-61
2022/03/02 11:09:04;;;;;;;36.55;19.05;;;8.80;99.90;;;;;;4971040;28;20027;-62
2022/03/02 11:11:35;;;;;;;45.20;20.17;;;8.80;99.90;;;;;;4977462;28;20070;-62
2022/03/02 11:14:02;;;;;;;33.20;18.13;;;8.90;99.90;;;;;;4959328;28;20034;-61
2022/03/02 11:16:28;;;;;;;32.53;17.52;;;8.90;99.90;;;;;;4981047;28;20472;-61
2022/03/02 11:18:53;;;;;;;32.92;17.88;;;8.90;99.90;;;;;;4980218;28;20501;-61
2022/03/02 11:21:28;;;;;;;29.92;16.90;;;9.00;99.90;;;;;;4988562;28;20117;-61
2022/03/02 11:23:56;;;;;;;32.35;17.80;;;9.10;99.90;;;;;;4970678;28;20058;-62
2022/03/02 11:26:26;;;;;;;32.08;17.58;;;9.20;99.90;;;;;;4971850;28;20047;-61
2022/03/02 11:28:55;;;;;;;30.88;16.38;;;9.30;99.90;;;;;;4975657;28;20130;-61
2022/03/02 11:31:30;;;;;;;32.45;18.10;;;9.30;99.90;;;;;;4966062;28;20046;-61
2022/03/02 11:34:11;;;;;;;31.10;17.27;;;9.40;99.90;;;;;;4971460;28;20074;-61
2022/03/02 11:36:37;;;;;;;;;;;9.40;99.90;;;;;;4972009;28;20074;-61
2022/03/02 11:39:05;;;;;;;30.75;17.63;;;9.50;99.90;;;;;;4956355;28;19926;-61
2022/03/02 11:41:39;;;;;;;33.28;17.83;;;9.60;99.90;;;;;;4971658;28;20042;-62
2022/03/02 11:44:29;;;;;;;31.90;17.50;;;9.60;99.90;;;;;;4976420;28;20118;-61
2022/03/02 11:46:56;;;;;;;34.97;18.58;;;9.70;99.90;;;;;;4967896;28;20051;-62
2022/03/02 11:49:45;;;;;;;32.72;18.60;;;9.70;99.90;;;;;;4982117;28;20035;-61
2022/03/02 11:52:15;;;;;;;29.67;17.33;;;9.80;99.90;;;;;;4971345;28;20520;-62
2022/03/02 11:54:42;;;;;;;31.77;17.60;;;9.80;99.90;;;;;;4953105;28;20061;-62
2022/03/02 11:57:07;;;;;;;33.35;16.80;;;9.80;99.90;;;;;;4966174;28;20039;-61
2022/03/02 11:59:35;;;;;;;29.10;17.02;;;9.90;99.90;;;;;;4966802;28;20081;-61
2022/03/02 12:02:10;;;;;;;30.40;16.77;;;9.90;99.90;;;;;;4957764;28;20047;-61
2022/03/02 12:04:35;;;;;;;28.45;16.92;;;9.80;99.90;;;;;;4966515;28;20453;-61
2022/03/02 12:07:04;;;;;;;29.13;16.40;;;9.80;99.90;;;;;;4971210;28;20040;-61
2022/03/02 12:09:31;;;;;;;32.55;17.65;;;9.90;99.70;;;;;;4965579;28;20046;-61
2022/03/02 12:12:09;;;;;;;31.60;17.00;;;10.00;99.90;;;;;;4964828;28;20649;-61
2022/03/02 12:14:50;;;;;;;31.95;17.45;;;10.00;97.80;;;;;;4968913;28;20058;-61
2022/03/02 12:17:21;;;;;;;31.05;16.98;;;10.00;97.90;;;;;;4982530;28;20046;-61
2022/03/02 12:19:56;;;;;;;29.55;16.80;;;10.00;96.90;;;;;;4982831;28;20057;-61
2022/03/02 12:22:25;;;;;;;28.63;16.70;;;10.00;96.60;;;;;;4974632;28;20129;-61
2022/03/02 12:24:51;;;;;;;28.08;16.58;;;10.00;98.20;;;;;;4981335;28;20031;-61
2022/03/02 12:27:18;;;;;;;28.58;16.02;;;10.10;99.90;;;;;;4991199;28;20464;-61
2022/03/02 12:29:51;;;;;;;31.67;16.58;;;10.10;97.40;;;;;;4984115;28;20039;-61
2022/03/02 12:32:17;;;;;;;28.77;16.25;;;10.20;98.80;;;;;;4983360;28;20050;-61
2022/03/02 12:34:45;;;;;;;29.13;15.88;;;10.20;98.50;;;;;;4980788;28;20042;-61
2022/03/02 12:37:12;;;;;;;29.65;16.48;;;10.30;97.20;;;;;;4983070;28;20114;-61
2022/03/02 12:39:40;;;;;;;28.55;16.38;;;10.30;96.30;;;;;;4985188;22;20142;-62
2022/03/02 12:42:09;;;;;;;32.05;17.17;;;10.30;98.80;;;;;;4985141;28;20077;-61
2022/03/02 12:44:44;;;;;;;27.08;16.25;;;10.40;99.90;;;;;;4992172;28;20038;-64